TimeCDT,TemperatureF,Dew PointF,Humidity,Sea Level PressureIn,VisibilityMPH,Wind Direction,Wind SpeedMPH,Gust SpeedMPH,PrecipitationIn,Events,Conditions,WindDirDegrees,DateUTC
12:00 AM,68.0,64.4,88,29.78,15.0,West,6.9,-,N/A,,Mostly Cloudy,280,2013-08-25 05:00:00
1:00 AM,67,65,89,29.80,15,West,8.1,,,,Scattered Clouds,260,2013-08-25 06:00:00
1:00 AM,66.2,64.4,94,29.80,15.0,West,6.9,-,N/A,,Mostly Cloudy,260,2013-08-25 06:00:00
2:00 AM,62.6,62.6,100,29.80,15.0,West,4.6,-,N/A,,Scattered Clouds,270,2013-08-25 07:00:00
3:00 AM,60.8,60.8,100,29.82,15.0,West,6.9,-,N/A,,Clear,280,2013-08-25 08:00:00
4:00 AM,59.0,59.0,100,29.83,15.0,West,4.6,-,N/A,,Clear,270,2013-08-25 09:00:00
5:00 AM,59.0,59.0,100,29.84,15.0,WSW,4.6,-,N/A,,Clear,250,2013-08-25 10:00:00
6:00 AM,60.8,60.8,100,29.86,8.0,WSW,8.1,-,N/A,,Partly Cloudy,250,2013-08-25 11:00:00
7:00 AM,58,58,99,29.89,5,West,4.6,,,,Mist,260,2013-08-25 12:00:00
7:00 AM,57.2,57.2,100,29.89,5.0,West,5.8,-,N/A,,Partly Cloudy,260,2013-08-25 12:00:00
8:00 AM,60.8,60.8,100,29.90,10.0,West,3.5,-,N/A,,Partly Cloudy,280,2013-08-25 13:00:00
9:00 AM,66.2,62.6,88,29.92,12.0,West,5.8,-,N/A,,Partly Cloudy,260,2013-08-25 14:00:00
10:00 AM,71.6,64.4,78,29.92,15.0,West,4.6,-,N/A,,Partly Cloudy,270,2013-08-25 15:00:00
11:00 AM,77.0,60.8,57,29.92,15.0,West,8.1,-,N/A,,Partly Cloudy,270,2013-08-25 16:00:00
12:00 PM,84.2,59.0,42,29.91,15.0,WNW,6.9,-,N/A,,Scattered Clouds,290,2013-08-25 17:00:00
1:00 PM,86,61,33,29.92,15,West,6.9,,,,Clear,260,2013-08-25 18:00:00
1:00 PM,86.0,60.8,43,29.91,15.0,WSW,8.1,-,N/A,,Scattered Clouds,250,2013-08-25 18:00:00
2:00 PM,87.8,57.2,35,29.91,15.0,West,13.8,-,N/A,,Scattered Clouds,260,2013-08-25 19:00:00
3:00 PM,89.6,51.8,27,29.92,15.0,WNW,9.2,-,N/A,,Mostly Cloudy,300,2013-08-25 20:00:00
4:00 PM,89.6,51.8,27,29.92,15.0,NNW,8.1,-,N/A,,Mostly Cloudy,340,2013-08-25 21:00:00
5:00 PM,89.6,50.0,26,29.93,15.0,Variable,2.3,-,N/A,,Overcast,0,2013-08-25 22:00:00
6:00 PM,87.8,60.8,40,29.94,15.0,SW,6.9,-,N/A,,Mostly Cloudy,220,2013-08-25 23:00:00
7:00 PM,81,67,54,29.94,15,SW,5.8,,,,Scattered Clouds,220,2013-08-26 00:00:00
7:00 PM,80.6,68.0,65,29.94,15.0,SW,5.8,-,N/A,,Mostly Cloudy,230,2013-08-26 00:00:00
8:00 PM,78.8,62.6,57,29.94,15.0,Calm,Calm,-,N/A,,Mostly Cloudy,0,2013-08-26 01:00:00
9:00 PM,73.4,62.6,69,29.95,15.0,Calm,Calm,-,N/A,,Mostly Cloudy,0,2013-08-26 02:00:00
10:00 PM,69.8,62.6,78,29.95,15.0,East,2.3,-,N/A,,Scattered Clouds,90,2013-08-26 03:00:00
11:00 PM,64.4,59.0,83,29.96,15.0,ENE,2.3,-,N/A,,Scattered Clouds,60,2013-08-26 04:00:00